Time;durP1;ratioP1;P1;durP2;ratioP2;P2;SDS_P1;SDS_P2;PMS_P1;PMS_P2;Temp;Humidity;BMP_temperature;BMP_pressure;BME280_temperature;BME280_humidity;BME280_pressure;Samples;Min_cycle;Max_cycle;Signal;HPM_P1;HPM_P2
2022/05/27 00:02:10;;;;;;;;;1.00;1.00;;;;;-142.59;100.00;56100.38;5034373;28;49730;-68
2022/05/27 00:04:35;;;;;;;;;1.00;1.00;;;;;-142.59;100.00;56100.38;5033700;28;50062;-69
2022/05/27 00:07:01;;;;;;;;;1.00;1.00;;;;;-142.59;100.00;56100.38;5014857;28;50511;-74
2022/05/27 00:09:26;;;;;;;;;0.50;0.00;;;;;-142.59;100.00;56100.38;5015237;28;49952;-75
2022/05/27 00:11:52;;;;;;;;;1.00;1.00;;;;;-142.59;100.00;56100.38;5015116;28;49961;-70
2022/05/27 00:14:17;;;;;;;;;1.00;1.00;;;;;-142.59;100.00;56100.38;5015232;28;49896;-70
2022/05/27 00:16:42;;;;;;;;;0.50;0.00;;;;;-142.59;100.00;56100.38;5014878;28;50511;-70
2022/05/27 00:19:08;;;;;;;;;1.00;1.00;;;;;-142.59;100.00;56100.38;5014847;28;49572;-71
2022/05/27 00:21:33;;;;;;;;;1.25;1.00;;;;;-142.59;100.00;56100.38;5014793;28;49709;-69
2022/05/27 00:24:00;;;;;;;;;2.00;2.00;;;;;-142.59;100.00;56100.38;5014994;28;49518;-69
2022/05/27 00:26:26;;;;;;;;;1.00;1.00;;;;;-142.59;100.00;56100.38;5014768;28;49977;-71
2022/05/27 00:28:51;;;;;;;;;1.00;1.00;;;;;-142.59;100.00;56100.38;5014701;28;49719;-70
2022/05/27 00:31:18;;;;;;;;;1.00;1.00;;;;;-142.59;100.00;56100.38;5015013;28;49709;-69
2022/05/27 00:33:44;;;;;;;;;0.50;0.50;;;;;-142.59;100.00;56100.38;5019286;28;49840;-71
2022/05/27 00:36:10;;;;;;;;;0.75;0.75;;;;;-142.59;100.00;56100.38;5017285;28;49762;-70
2022/05/27 00:38:36;;;;;;;;;1.00;1.00;;;;;-142.59;100.00;56100.38;5005703;28;50043;-69
2022/05/27 00:41:02;;;;;;;;;4.75;1.00;;;;;-142.59;100.00;56100.38;5021623;28;49900;-70
2022/05/27 00:43:27;;;;;;;;;1.00;1.00;;;;;-142.59;100.00;56100.38;5019327;28;49781;-71
2022/05/27 00:46:06;;;;;;;;;1.00;1.00;;;;;-142.59;100.00;56100.38;5020250;28;50427;-70
2022/05/27 00:48:36;;;;;;;;;1.00;1.00;;;;;-142.59;100.00;56100.38;5018711;28;49646;-73
2022/05/27 00:51:11;;;;;;;;;1.00;0.00;;;;;-142.59;100.00;56100.38;5015802;28;49813;-73
2022/05/27 00:54:18;;;;;;;;;0.75;0.75;;;;;-142.59;100.00;56100.38;5016263;28;49811;-69
2022/05/27 00:56:47;;;;;;;;;0.00;0.00;;;;;-142.59;100.00;56100.38;4964976;28;50713;-68
2022/05/27 00:59:23;;;;;;;;;1.00;0.00;;;;;-142.59;100.00;56100.38;4964747;28;49864;-68
2022/05/27 01:01:49;;;;;;;;;1.00;1.00;;;;;-142.59;100.00;56100.38;5002011;28;49763;-68
2022/05/27 01:04:16;;;;;;;;;1.75;1.75;;;;;-142.59;100.00;56100.38;5029153;28;49960;-68
2022/05/27 01:06:41;;;;;;;;;1.00;1.00;;;;;-142.59;100.00;56100.38;5020284;28;49875;-69
2022/05/27 01:09:06;;;;;;;;;1.00;1.00;;;;;-142.59;100.00;56100.38;5020141;28;49780;-68
2022/05/27 01:11:34;;;;;;;;;1.00;1.00;;;;;-142.59;100.00;56100.38;5020868;28;49769;-70
2022/05/27 01:14:23;;;;;;;;;3.00;1.00;;;;;-142.59;100.00;56100.38;5022989;28;49944;-69
2022/05/27 01:17:02;;;;;;;;;1.00;1.00;;;;;-142.59;100.00;56100.38;5015159;28;50779;-68
2022/05/27 01:22:41;;;;;;;;;1.00;1.00;;;;;-142.59;100.00;56100.38;5020139;28;50570;-69
2022/05/27 01:25:20;;;;;;;;;2.25;1.75;;;;;-142.59;100.00;56100.38;5020092;28;49615;-68
2022/05/27 01:27:45;;;;;;;;;2.75;0.50;;;;;-142.59;100.00;56100.38;5014752;28;50551;-68
2022/05/27 01:30:28;;;;;;;;;1.50;1.50;;;;;-142.59;100.00;56100.38;5019646;28;49747;-68
2022/05/27 01:33:02;;;;;;;;;1.00;1.00;;;;;-142.59;100.00;56100.38;5015551;28;49838;-69
2022/05/27 01:35:38;;;;;;;;;0.75;0.75;;;;;-142.59;100.00;56100.38;5017398;28;49734;-68
2022/05/27 01:38:11;;;;;;;;;1.00;1.00;;;;;-142.59;100.00;56100.38;5018521;28;49799;-69
2022/05/27 01:40:59;;;;;;;;;1.50;1.00;;;;;-142.59;100.00;56100.38;5014199;28;49815;-69
2022/05/27 01:43:35;;;;;;;;;1.00;1.00;;;;;-142.59;100.00;56100.38;5032153;28;49615;-68
2022/05/27 01:46:26;;;;;;;;;0.75;0.75;;;;;-142.59;100.00;56100.38;5023633;28;49691;-68
2022/05/27 01:49:18;;;;;;;;;2.00;2.00;;;;;-142.59;100.00;56100.38;5018927;28;51088;-68
2022/05/27 01:52:09;;;;;;;;;0.75;0.75;;;;;-142.59;100.00;56100.38;5027598;28;49793;-68
2022/05/27 01:54:55;;;;;;;;;2.00;2.00;;;;;-142.59;100.00;56100.38;5016516;28;49972;-68
2022/05/27 01:57:27;;;;;;;;;1.00;1.00;;;;;-142.59;100.00;56100.38;5016326;28;49639;-68
2022/05/27 02:00:08;;;;;;;;;2.00;1.00;;;;;-142.59;100.00;56100.38;5015413;28;50428;-68
2022/05/27 02:02:40;;;;;;;;;2.50;1.00;;;;;-142.59;100.00;56100.38;5017665;28;49683;-68
2022/05/27 02:05:18;;;;;;;;;2.00;2.00;;;;;-142.59;100.00;56100.38;5016926;28;49803;-68
2022/05/27 02:07:54;;;;;;;;;1.25;1.25;;;;;-142.59;100.00;56100.38;5021090;28;49726;-69
2022/05/27 02:10:23;;;;;;;;;1.50;1.50;;;;;-142.59;100.00;56100.38;5026171;28;50700;-68
2022/05/27 02:12:58;;;;;;;;;1.25;1.25;;;;;-142.59;100.00;56100.38;5019774;28;49852;-69
2022/05/27 02:15:31;;;;;;;;;2.25;1.50;;;;;-142.59;100.00;56100.38;5016389;28;49770;-69
2022/05/27 02:18:10;;;;;;;;;1.00;1.00;;;;;-142.59;100.00;56100.38;5013241;28;50012;-68
2022/05/27 02:20:41;;;;;;;;;1.00;1.00;;;;;-142.59;100.00;56100.38;5015664;28;50599;-68
2022/05/27 02:23:20;;;;;;;;;2.50;1.75;;;;;-142.59;100.00;56100.38;5017476;28;49919;-69
2022/05/27 02:25:47;;;;;;;;;1.75;1.75;;;;;-142.59;100.00;56100.38;5021579;28;49827;-69
2022/05/27 02:28:18;;;;;;;;;2.00;2.00;;;;;-142.59;100.00;56100.38;5027410;28;49773;-69
2022/05/27 02:30:50;;;;;;;;;2.00;2.00;;;;;-142.59;100.00;56100.38;5014547;28;49657;-68
2022/05/27 02:36:14;;;;;;;;;2.00;2.00;;;;;-142.59;100.00;56100.38;5019357;28;49859;-68
2022/05/27 02:38:40;;;;;;;;;3.25;2.25;;;;;-142.59;100.00;56100.38;5019257;28;50254;-68
2022/05/27 02:41:24;;;;;;;;;1.75;1.75;;;;;-142.59;100.00;56100.38;5019314;28;50246;-68
2022/05/27 02:44:05;;;;;;;;;1.75;1.75;;;;;-142.59;100.00;56100.38;5012902;28;49632;-68
2022/05/27 02:46:44;;;;;;;;;1.25;1.25;;;;;-142.59;100.00;56100.38;5025870;28;49846;-68
2022/05/27 02:49:31;;;;;;;;;2.00;2.00;;;;;-142.59;100.00;56100.38;5030885;28;49919;-68
2022/05/27 02:52:18;;;;;;;;;2.50;2.25;;;;;-142.59;100.00;56100.38;5020469;28;49766;-70
2022/05/27 02:54:58;;;;;;;;;3.00;3.00;;;;;-142.59;100.00;56100.38;5025160;28;49628;-68
2022/05/27 02:57:32;;;;;;;;;5.00;2.75;;;;;-142.59;100.00;56100.38;5017393;28;49682;-69
2022/05/27 03:00:06;;;;;;;;;2.00;2.00;;;;;-142.59;100.00;56100.38;5028448;28;49675;-69
2022/05/27 03:02:31;;;;;;;;;4.50;2.25;;;;;-142.59;100.00;56100.38;5014382;28;52012;-68
2022/05/27 03:05:00;;;;;;;;;2.25;2.25;;;;;-142.59;100.00;56100.38;5008939;28;49742;-68
2022/05/27 03:07:36;;;;;;;;;5.25;4.50;;;;;-142.59;100.00;56100.38;5026078;28;50156;-68
2022/05/27 03:10:20;;;;;;;;;2.75;2.75;;;;;-142.59;100.00;56100.38;5024239;28;49921;-68
2022/05/27 03:12:55;;;;;;;;;3.50;3.50;;;;;-142.59;100.00;56100.38;5025064;28;50398;-68
2022/05/27 03:15:31;;;;;;;;;2.50;2.00;;;;;-142.59;100.00;56100.38;5028505;28;49670;-70
2022/05/27 03:18:20;;;;;;;;;2.00;2.00;;;;;-142.59;100.00;56100.38;5023045;28;49782;-68
2022/05/27 03:20:49;;;;;;;;;3.50;2.00;;;;;-142.59;100.00;56100.38;5020259;28;49826;-68
2022/05/27 03:23:26;;;;;;;;;3.00;3.00;;;;;-142.59;100.00;56100.38;5015624;28;50734;-68
2022/05/27 03:26:13;;;;;;;;;3.00;2.75;;;;;-142.59;100.00;56100.38;5033761;28;49712;-69
2022/05/27 03:29:03;;;;;;;;;4.50;4.50;;;;;-142.59;100.00;56100.38;5019953;28;50392;-68
2022/05/27 03:31:39;;;;;;;;;6.75;6.75;;;;;-142.59;100.00;56100.38;5002354;28;49611;-69
2022/05/27 03:34:09;;;;;;;;;5.00;5.00;;;;;-142.59;100.00;56100.38;5019345;28;50558;-68
2022/05/27 03:36:59;;;;;;;;;3.00;3.00;;;;;-142.59;100.00;56100.38;5017669;28;49772;-69
2022/05/27 03:39:38;;;;;;;;;5.50;2.25;;;;;-142.59;100.00;56100.38;5021929;28;49710;-72
2022/05/27 03:42:08;;;;;;;;;5.00;4.00;;;;;-142.59;100.00;56100.38;5017982;28;49709;-70
2022/05/27 03:44:34;;;;;;;;;3.50;3.50;;;;;-142.59;100.00;56100.38;5015220;28;51324;-70
2022/05/27 03:47:00;;;;;;;;;4.75;4.75;;;;;-142.59;100.00;56100.38;5019407;28;49777;-68
2022/05/27 03:49:27;;;;;;;;;2.50;2.50;;;;;-142.59;100.00;56100.38;5018414;28;49853;-68
2022/05/27 03:52:04;;;;;;;;;2.75;2.75;;;;;-142.59;100.00;56100.38;5016544;28;49971;-71
2022/05/27 03:54:30;;;;;;;;;3.00;3.00;;;;;-142.59;100.00;56100.38;5015298;28;50725;-68
2022/05/27 03:56:55;;;;;;;;;3.75;3.25;;;;;-142.59;100.00;56100.38;5026163;28;49564;-69
2022/05/27 03:59:22;;;;;;;;;2.25;2.25;;;;;-142.59;100.00;56100.38;5023926;28;49611;-68
2022/05/27 04:01:51;;;;;;;;;2.25;2.00;;;;;-142.59;100.00;56100.38;5020877;28;49801;-68
2022/05/27 04:04:19;;;;;;;;;3.00;3.00;;;;;-142.59;100.00;56100.38;5021004;28;50600;-69
2022/05/27 04:06:47;;;;;;;;;2.00;2.00;;;;;-142.59;100.00;56100.38;5021490;28;49630;-69
2022/05/27 04:09:13;;;;;;;;;4.75;3.75;;;;;-142.59;100.00;56100.38;5017264;28;49782;-69
2022/05/27 04:11:38;;;;;;;;;4.25;2.75;;;;;-142.59;100.00;56100.38;5021207;28;49650;-69
2022/05/27 04:14:04;;;;;;;;;3.00;3.00;;;;;-142.59;100.00;56100.38;5018556;28;51375;-68
2022/05/27 04:16:29;;;;;;;;;4.25;3.00;;;;;-142.59;100.00;56100.38;5021480;28;49758;-69
2022/05/27 04:18:55;;;;;;;;;7.50;5.00;;;;;-142.59;100.00;56100.38;5016215;28;49774;-68
2022/05/27 04:21:20;;;;;;;;;5.00;3.00;;;;;-142.59;100.00;56100.38;5019824;28;49972;-70
2022/05/27 04:23:46;;;;;;;;;3.00;3.00;;;;;-142.59;100.00;56100.38;5014655;28;50315;-69
2022/05/27 04:26:11;;;;;;;;;4.00;4.00;;;;;-142.59;100.00;56100.38;5018584;28;49755;-69
2022/05/27 04:28:38;;;;;;;;;4.00;2.50;;;;;-142.59;100.00;56100.38;5020712;28;49784;-69
2022/05/27 04:31:03;;;;;;;;;3.00;3.00;;;;;-142.59;100.00;56100.38;5019312;28;49935;-69
2022/05/27 04:33:29;;;;;;;;;3.50;3.50;;;;;-142.59;100.00;56100.38;5014469;28;49726;-69
2022/05/27 04:35:55;;;;;;;;;3.50;3.50;;;;;-142.59;100.00;56100.38;5018483;28;50133;-70
2022/05/27 04:38:22;;;;;;;;;4.00;4.00;;;;;-142.59;100.00;56100.38;5011202;28;49812;-69
2022/05/27 04:40:48;;;;;;;;;4.25;4.25;;;;;-142.59;100.00;56100.38;5027951;28;49685;-69
2022/05/27 04:43:14;;;;;;;;;4.75;2.25;;;;;-142.59;100.00;56100.38;5014377;28;49733;-69
2022/05/27 04:45:40;;;;;;;;;6.25;6.00;;;;;-142.59;100.00;56100.38;5020921;28;49725;-70
2022/05/27 04:48:06;;;;;;;;;4.75;4.75;;;;;-142.59;100.00;56100.38;5014546;28;49716;-72
2022/05/27 04:50:31;;;;;;;;;4.25;4.00;;;;;-142.59;100.00;56100.38;5014559;28;49786;-70
2022/05/27 04:52:56;;;;;;;;;4.50;3.50;;;;;-142.59;100.00;56100.38;5014360;28;49656;-69
2022/05/27 04:55:22;;;;;;;;;5.25;4.75;;;;;-142.59;100.00;56100.38;5014369;28;49826;-70
2022/05/27 04:57:54;;;;;;;;;5.00;3.75;;;;;-142.59;100.00;56100.38;5018014;28;49892;-75
2022/05/27 05:00:24;;;;;;;;;2.75;2.75;;;;;-142.59;100.00;56100.38;5017900;28;49579;-69
2022/05/27 05:02:49;;;;;;;;;6.75;5.50;;;;;-142.59;100.00;56100.38;5019432;28;49715;-69
2022/05/27 05:05:18;;;;;;;;;6.00;6.00;;;;;-142.59;100.00;56100.38;5016242;28;50080;-71
2022/05/27 05:07:50;;;;;;;;;7.00;5.00;;;;;-142.59;100.00;56100.38;5021673;28;49732;-70
2022/05/27 05:10:19;;;;;;;;;5.25;5.25;;;;;-142.59;100.00;56100.38;5026958;28;49618;-69
2022/05/27 05:12:44;;;;;;;;;8.00;6.50;;;;;-142.59;100.00;56100.38;5021035;28;49765;-69
2022/05/27 05:15:12;;;;;;;;;8.00;8.00;;;;;-142.59;100.00;56100.38;5020551;28;49904;-69
2022/05/27 05:17:38;;;;;;;;;7.50;6.75;;;;;-142.59;100.00;56100.38;5017182;28;50310;-69
2022/05/27 05:20:05;;;;;;;;;10.50;8.50;;;;;-142.59;100.00;56100.38;5015077;28;49582;-69
2022/05/27 05:22:31;;;;;;;;;7.25;6.00;;;;;-142.59;100.00;56100.38;5018012;28;49706;-69
2022/05/27 05:24:56;;;;;;;;;10.00;9.25;;;;;-142.59;100.00;56100.38;5024015;28;50239;-69
2022/05/27 05:27:24;;;;;;;;;9.00;9.00;;;;;-142.59;100.00;56100.38;5020837;28;49761;-70
2022/05/27 05:29:52;;;;;;;;;7.75;7.75;;;;;-142.59;100.00;56100.38;5019446;28;49800;-69
2022/05/27 05:32:18;;;;;;;;;11.75;10.50;;;;;-142.59;100.00;56100.38;5021425;28;50465;-69
2022/05/27 05:34:43;;;;;;;;;9.25;8.50;;;;;-142.59;100.00;56100.38;5018294;28;49702;-69
2022/05/27 05:37:09;;;;;;;;;14.75;12.00;;;;;-142.59;100.00;56100.38;5015562;28;49603;-69
2022/05/27 05:39:36;;;;;;;;;11.25;10.25;;;;;-142.59;100.00;56100.38;5020480;28;49662;-69
2022/05/27 05:42:04;;;;;;;;;7.75;7.75;;;;;-142.59;100.00;56100.38;5018055;28;51028;-69
2022/05/27 05:44:32;;;;;;;;;16.50;13.50;;;;;-142.59;100.00;56100.38;5016274;28;50443;-69
2022/05/27 05:46:58;;;;;;;;;18.25;16.75;;;;;-142.59;100.00;56100.38;5021893;28;49887;-69
2022/05/27 05:49:24;;;;;;;;;13.75;13.25;;;;;-142.59;100.00;56100.38;5014376;28;49569;-69
2022/05/27 05:51:51;;;;;;;;;16.25;15.00;;;;;-142.59;100.00;56100.38;5020390;28;49762;-69
2022/05/27 05:54:19;;;;;;;;;13.00;12.00;;;;;-142.59;100.00;56100.38;5012979;28;49791;-69
2022/05/27 05:56:45;;;;;;;;;14.00;14.00;;;;;-142.59;100.00;56100.38;5026047;28;50030;-69
2022/05/27 05:59:10;;;;;;;;;14.50;13.00;;;;;-142.59;100.00;56100.38;5019035;28;49997;-69
2022/05/27 06:01:36;;;;;;;;;19.75;18.75;;;;;-142.59;100.00;56100.38;4999515;28;52712;-69
2022/05/27 06:04:01;;;;;;;;;16.75;15.00;;;;;-142.59;100.00;56100.38;5018396;28;49603;-69
2022/05/27 06:06:26;;;;;;;;;12.50;12.50;;;;;-142.59;100.00;56100.38;5016721;28;49759;-70
2022/05/27 06:08:52;;;;;;;;;17.00;14.75;;;;;-142.59;100.00;56100.38;5024295;28;49753;-71
2022/05/27 06:11:18;;;;;;;;;18.00;15.75;;;;;-142.59;100.00;56100.38;5014147;28;49658;-70
2022/05/27 06:13:43;;;;;;;;;15.00;14.25;;;;;-142.59;100.00;56100.38;5018212;28;49739;-70
2022/05/27 06:16:09;;;;;;;;;19.00;10.50;;;;;-142.59;100.00;56100.38;5017476;28;49788;-70
2022/05/27 06:18:36;;;;;;;;;8.25;8.00;;;;;-142.59;100.00;56100.38;5028525;28;49596;-69
2022/05/27 06:21:01;;;;;;;;;6.00;4.00;;;;;-142.59;100.00;56100.38;5013959;28;49564;-70
2022/05/27 06:23:28;;;;;;;;;9.00;7.00;;;;;-142.59;100.00;56100.38;5012607;28;49821;-70
2022/05/27 06:25:58;;;;;;;;;5.00;5.00;;;;;-142.59;100.00;56100.38;5014455;28;50626;-69
2022/05/27 06:36:45;;;;;;;;;7.75;7.75;;;;;-142.59;100.00;56100.38;5024493;28;51175;-70
2022/05/27 06:39:12;;;;;;;;;6.50;6.50;;;;;-142.59;100.00;56100.38;5021814;28;49887;-70
2022/05/27 06:41:37;;;;;;;;;6.75;5.50;;;;;-142.59;100.00;56100.38;5035476;28;49597;-69
2022/05/27 06:44:04;;;;;;;;;10.50;6.00;;;;;-142.59;100.00;56100.38;5023223;28;49808;-69
2022/05/27 06:46:31;;;;;;;;;6.50;6.25;;;;;-142.59;100.00;56100.38;5022615;28;49662;-70
2022/05/27 06:48:56;;;;;;;;;8.50;8.00;;;;;-142.59;100.00;56100.38;5028412;28;49990;-70
2022/05/27 06:51:22;;;;;;;;;8.50;8.50;;;;;-142.59;100.00;56100.38;5020951;28;50286;-70
2022/05/27 06:53:47;;;;;;;;;9.25;8.75;;;;;-142.59;100.00;56100.38;5016154;28;49851;-69
2022/05/27 06:56:13;;;;;;;;;11.25;10.00;;;;;-142.59;100.00;56100.38;5019059;28;49769;-70
2022/05/27 06:58:40;;;;;;;;;6.75;6.75;;;;;-142.59;100.00;56100.38;5024369;28;49950;-69
2022/05/27 07:01:06;;;;;;;;;10.00;8.50;;;;;-142.59;100.00;56100.38;5021191;28;50664;-69
2022/05/27 07:03:31;;;;;;;;;9.00;7.75;;;;;-142.59;100.00;56100.38;5022384;28;49785;-69
2022/05/27 07:05:57;;;;;;;;;9.25;9.25;;;;;-142.59;100.00;56100.38;5021964;28;49786;-69
2022/05/27 07:08:22;;;;;;;;;12.00;10.50;;;;;-142.59;100.00;56100.38;5023966;28;49492;-69
2022/05/27 07:10:47;;;;;;;;;10.00;9.00;;;;;-142.59;100.00;56100.38;5018437;28;49964;-69
2022/05/27 07:13:13;;;;;;;;;7.00;6.00;;;;;-142.59;100.00;56100.38;5022084;28;49924;-71
2022/05/27 07:15:40;;;;;;;;;13.75;12.00;;;;;-142.59;100.00;56100.38;5027320;28;49789;-69
2022/05/27 07:18:09;;;;;;;;;15.50;12.25;;;;;-142.59;100.00;56100.38;5027876;28;49852;-73
2022/05/27 07:20:37;;;;;;;;;13.00;10.75;;;;;-142.59;100.00;56100.38;5016580;28;49870;-74
2022/05/27 07:23:05;;;;;;;;;14.50;13.25;;;;;-142.59;100.00;56100.38;5028428;28;49733;-71
2022/05/27 07:25:34;;;;;;;;;10.50;10.50;;;;;-142.59;100.00;56100.38;5034980;28;49769;-71
2022/05/27 07:28:08;;;;;;;;;12.00;10.25;;;;;-142.59;100.00;56100.38;5026922;28;49740;-70
2022/05/27 07:30:35;;;;;;;;;11.00;8.75;;;;;-142.59;100.00;56100.38;5015619;28;50431;-70
2022/05/27 07:33:01;;;;;;;;;14.75;11.75;;;;;-142.59;100.00;56100.38;5015441;28;49899;-69
2022/05/27 07:35:30;;;;;;;;;12.75;10.00;;;;;-142.59;100.00;56100.38;5015827;28;50051;-71
2022/05/27 07:37:55;;;;;;;;;10.75;10.50;;;;;-142.59;100.00;56100.38;5015555;28;49816;-69
2022/05/27 07:40:21;;;;;;;;;8.25;8.25;;;;;-142.59;100.00;56100.38;5015398;28;50458;-68
2022/05/27 07:42:50;;;;;;;;;8.50;8.50;;;;;-142.59;100.00;56100.38;5028740;28;49797;-69
2022/05/27 07:45:17;;;;;;;;;11.50;11.50;;;;;-142.59;100.00;56100.38;4997571;28;49741;-69
2022/05/27 07:47:42;;;;;;;;;14.00;11.00;;;;;-142.59;100.00;56100.38;5015682;28;50004;-68
2022/05/27 07:50:11;;;;;;;;;11.25;10.00;;;;;-142.59;100.00;56100.38;5015062;28;50220;-72
2022/05/27 07:52:37;;;;;;;;;9.25;8.75;;;;;-142.59;100.00;56100.38;5014742;28;49855;-67
2022/05/27 07:55:03;;;;;;;;;12.25;9.25;;;;;-142.59;100.00;56100.38;5014991;28;49708;-68
2022/05/27 07:57:29;;;;;;;;;11.00;9.00;;;;;-142.59;100.00;56100.38;5015264;28;49930;-68
2022/05/27 07:59:54;;;;;;;;;11.00;10.00;;;;;-142.59;100.00;56100.38;5015192;28;50151;-69
2022/05/27 08:02:21;;;;;;;;;7.00;7.00;;;;;-142.59;100.00;56100.38;5015085;28;49611;-67
2022/05/27 08:04:46;;;;;;;;;9.25;7.50;;;;;-142.59;100.00;56100.38;5015495;28;49590;-66
2022/05/27 08:07:12;;;;;;;;;10.50;10.00;;;;;-142.59;100.00;56100.38;5015860;28;50034;-67
2022/05/27 08:09:37;;;;;;;;;7.25;7.00;;;;;-142.59;100.00;56100.38;5014992;28;50427;-67
2022/05/27 08:12:03;;;;;;;;;12.25;10.25;;;;;-142.59;100.00;56100.38;5014865;28;49629;-74
2022/05/27 08:14:28;;;;;;;;;7.75;7.75;;;;;-142.59;100.00;56100.38;5015147;28;49879;-72
2022/05/27 08:16:53;;;;;;;;;12.75;9.00;;;;;-142.59;100.00;56100.38;5015132;28;49512;-73
2022/05/27 08:19:19;;;;;;;;;6.00;6.00;;;;;-142.59;100.00;56100.38;5014752;28;50754;-71
2022/05/27 08:21:44;;;;;;;;;6.00;6.00;;;;;-142.59;100.00;56100.38;5014734;28;49524;-74
2022/05/27 08:24:10;;;;;;;;;8.00;6.75;;;;;-142.59;100.00;56100.38;5019242;28;49856;-74
2022/05/27 08:26:37;;;;;;;;;7.25;6.25;;;;;-142.59;100.00;56100.38;5019709;28;49620;-68
2022/05/27 08:29:03;;;;;;;;;7.75;7.75;;;;;-142.59;100.00;56100.38;5020661;28;49833;-71
2022/05/27 08:31:29;;;;;;;;;7.75;6.50;;;;;-142.59;100.00;56100.38;5030139;28;49804;-70
2022/05/27 08:39:22;;;;;;;;;8.75;7.00;;;;;-142.59;100.00;56100.38;5028792;28;50100;-71
2022/05/27 08:42:09;;;;;;;;;4.75;4.75;;;;;-142.59;100.00;56100.38;5032327;28;49642;-69
2022/05/27 08:44:49;;;;;;;;;6.75;5.75;;;;;-142.59;100.00;56100.38;5014523;28;49750;-72
2022/05/27 08:47:26;;;;;;;;;4.75;3.75;;;;;-142.59;100.00;56100.38;5014981;28;49816;-73
2022/05/27 08:50:23;;;;;;;;;8.00;5.75;;;;;-142.59;100.00;56100.38;5021574;28;50500;-75
2022/05/27 08:53:04;;;;;;;;;4.00;4.00;;;;;-142.59;100.00;56100.38;5027070;28;49857;-70
2022/05/27 09:01:22;;;;;;;;;3.75;3.75;;;;;-142.59;100.00;56100.38;5023559;28;49882;-69
2022/05/27 09:04:08;;;;;;;;;4.00;3.75;;;;;-142.59;100.00;56100.38;5029123;28;49783;-70
2022/05/27 09:06:41;;;;;;;;;6.25;4.75;;;;;-142.59;100.00;56100.38;5029504;28;49823;-69
2022/05/27 09:09:20;;;;;;;;;5.75;3.00;;;;;-142.59;100.00;56100.38;5030157;28;49693;-67
2022/05/27 09:12:03;;;;;;;;;4.75;4.75;;;;;-142.59;100.00;56100.38;5013922;28;49797;-69
2022/05/27 09:14:37;;;;;;;;;4.25;4.25;;;;;-142.59;100.00;56100.38;5027333;28;49755;-74
2022/05/27 09:17:06;;;;;;;;;6.00;3.00;;;;;-142.59;100.00;56100.38;5032866;28;49778;-72
2022/05/27 09:19:53;;;;;;;;;4.50;4.50;;;;;-142.59;100.00;56100.38;5034462;28;49804;-71
2022/05/27 09:22:51;;;;;;;;;4.75;4.75;;;;;-142.59;100.00;56100.38;5019008;28;49751;-70
2022/05/27 09:25:32;;;;;;;;;4.50;4.00;;;;;-142.59;100.00;56100.38;5027771;28;49818;-65
2022/05/27 09:28:22;;;;;;;;;3.75;3.25;;;;;-142.59;100.00;56100.38;5024262;28;49717;-65
2022/05/27 09:30:50;;;;;;;;;6.00;3.00;;;;;-142.59;100.00;56100.38;5033481;28;49773;-73
2022/05/27 09:33:20;;;;;;;;;6.00;6.00;;;;;-142.59;100.00;56100.38;5020252;28;49932;-68
2022/05/27 09:35:52;;;;;;;;;4.25;4.00;;;;;-142.59;100.00;56100.38;5039185;28;49621;-81
2022/05/27 09:38:25;;;;;;;;;5.50;5.50;;;;;-142.59;100.00;56100.38;5026728;28;50317;-80
2022/05/27 09:41:01;;;;;;;;;4.00;4.00;;;;;-142.59;100.00;56100.38;5025318;28;49899;-72
2022/05/27 09:43:41;;;;;;;;;5.00;5.00;;;;;-142.59;100.00;56100.38;5028516;28;50371;-72
2022/05/27 09:46:12;;;;;;;;;3.50;3.50;;;;;-142.59;100.00;56100.38;5029041;28;49913;-74
2022/05/27 09:48:37;;;;;;;;;2.75;2.75;;;;;-142.59;100.00;56100.38;5013563;28;49791;-69
2022/05/27 09:51:07;;;;;;;;;4.25;4.25;;;;;-142.59;100.00;56100.38;5013785;28;49917;-69
2022/05/27 09:53:42;;;;;;;;;6.50;5.50;;;;;-142.59;100.00;56100.38;5014894;28;49850;-71
2022/05/27 09:56:11;;;;;;;;;3.00;3.00;;;;;-142.59;100.00;56100.38;5013336;28;49746;-70
2022/05/27 09:58:45;;;;;;;;;5.00;3.25;;;;;-142.59;100.00;56100.38;5013339;28;49741;-71
2022/05/27 10:01:29;;;;;;;;;6.50;4.75;;;;;-142.59;100.00;56100.38;5013588;28;49973;-72
2022/05/27 10:04:06;;;;;;;;;5.00;5.00;;;;;-142.59;100.00;56100.38;5027056;28;50651;-68
2022/05/27 10:06:34;;;;;;;;;4.50;4.00;;;;;-142.59;100.00;56100.38;5032392;28;49804;-70
2022/05/27 10:09:06;;;;;;;;;5.00;4.50;;;;;-142.59;100.00;56100.38;5022515;28;49894;-73
2022/05/27 10:11:49;;;;;;;;;5.00;5.00;;;;;-142.59;100.00;56100.38;5014851;28;49812;-71
2022/05/27 10:14:28;;;;;;;;;5.25;4.75;;;;;-142.59;100.00;56100.38;5014362;28;49874;-70
2022/05/27 10:17:12;;;;;;;;;4.75;4.75;;;;;-142.59;100.00;56100.38;5021358;28;49751;-71
2022/05/27 10:19:40;;;;;;;;;5.50;4.25;;;;;-142.59;100.00;56100.38;5016818;28;49805;-70
2022/05/27 10:22:08;;;;;;;;;4.75;4.75;;;;;-142.59;100.00;56100.38;5022634;28;50182;-72
2022/05/27 10:24:37;;;;;;;;;5.50;5.50;;;;;-142.59;100.00;56100.38;5026075;28;49897;-73
2022/05/27 10:27:10;;;;;;;;;8.00;5.25;;;;;-142.59;100.00;56100.38;5025706;28;49799;-72
2022/05/27 10:29:51;;;;;;;;;6.00;6.00;;;;;-142.59;100.00;56100.38;5021402;28;49962;-70
2022/05/27 10:32:35;;;;;;;;;4.50;4.50;;;;;-142.59;100.00;56100.38;5016757;28;49888;-71
2022/05/27 10:35:06;;;;;;;;;3.50;3.50;;;;;-142.59;100.00;56100.38;5029693;28;49836;-71
2022/05/27 10:38:10;;;;;;;;;6.75;5.00;;;;;-142.59;100.00;56100.38;5034906;28;49678;-72
2022/05/27 10:40:55;;;;;;;;;4.75;4.75;;;;;-142.59;100.00;56100.38;5034162;28;49839;-74
2022/05/27 10:43:33;;;;;;;;;5.50;5.50;;;;;-142.59;100.00;56100.38;4992746;28;50007;-71
2022/05/27 10:46:04;;;;;;;;;5.00;5.00;;;;;-142.59;100.00;56100.38;5033882;28;50378;-71
2022/05/27 10:48:48;;;;;;;;;3.00;3.00;;;;;-142.59;100.00;56100.38;5034109;28;49666;-71
2022/05/27 10:51:31;;;;;;;;;4.25;4.25;;;;;-142.59;100.00;56100.38;5034100;28;49972;-71
2022/05/27 10:54:25;;;;;;;;;5.75;4.00;;;;;-142.59;100.00;56100.38;5015690;28;49615;-73
2022/05/27 11:02:37;;;;;;;;;4.00;4.00;;;;;-142.59;100.00;56100.38;5035161;28;49729;-70
2022/05/27 11:05:05;;;;;;;;;4.00;4.00;;;;;-142.59;100.00;56100.38;5035259;28;49903;-69
2022/05/27 11:07:47;;;;;;;;;5.50;4.00;;;;;-142.59;100.00;56100.38;5034682;28;50513;-69
2022/05/27 11:10:41;;;;;;;;;4.00;4.00;;;;;-142.59;100.00;56100.38;5035039;28;49788;-70
2022/05/27 11:16:51;;;;;;;;;6.00;5.50;;;;;-142.59;100.00;56100.38;5035288;28;49793;-70
2022/05/27 11:19:58;;;;;;;;;7.50;7.50;;;;;-142.59;100.00;56100.38;5022159;28;50620;-70
2022/05/27 11:23:04;;;;;;;;;4.75;3.50;;;;;-142.59;100.00;56100.38;5032737;28;49688;-69
2022/05/27 11:25:57;;;;;;;;;6.25;5.25;;;;;-142.59;100.00;56100.38;5014620;28;49686;-69
2022/05/27 11:28:44;;;;;;;;;5.00;4.00;;;;;-142.59;100.00;56100.38;5028763;28;49882;-69
2022/05/27 11:31:30;;;;;;;;;6.00;6.00;;;;;-142.59;100.00;56100.38;5034417;28;50535;-69
2022/05/27 11:34:16;;;;;;;;;4.00;4.00;;;;;-142.59;100.00;56100.38;5034624;28;49745;-71
2022/05/27 11:37:19;;;;;;;;;6.50;6.00;;;;;-142.59;100.00;56100.38;5034478;28;49788;-70
2022/05/27 11:39:57;;;;;;;;;6.50;6.50;;;;;-142.59;100.00;56100.38;5034765;28;50071;-70
2022/05/27 11:42:55;;;;;;;;;4.75;4.75;;;;;-142.59;100.00;56100.38;5034382;28;50280;-70
2022/05/27 11:45:24;;;;;;;;;5.50;5.50;;;;;-142.59;100.00;56100.38;5034416;28;49857;-70
2022/05/27 11:48:40;;;;;;;;;5.75;5.75;;;;;-142.59;100.00;56100.38;5034347;28;49514;-69
2022/05/27 11:51:11;;;;;;;;;4.00;4.00;;;;;-142.59;100.00;56100.38;4953857;28;49972;-68
2022/05/27 11:54:15;;;;;;;;;3.00;3.00;;;;;-142.59;100.00;56100.38;5010613;28;50625;-70
2022/05/27 11:56:56;;;;;;;;;3.50;3.50;;;;;-142.59;100.00;56100.38;5030792;28;49776;-68
2022/05/27 11:59:40;;;;;;;;;4.25;4.25;;;;;-142.59;100.00;56100.38;5034425;28;49769;-71
2022/05/27 12:02:25;;;;;;;;;4.00;4.00;;;;;-142.59;100.00;56100.38;5034382;28;49920;-68
2022/05/27 12:05:12;;;;;;;;;4.75;4.75;;;;;-142.59;100.00;56100.38;5033796;28;49824;-70
2022/05/27 12:07:46;;;;;;;;;3.25;3.25;;;;;-142.59;100.00;56100.38;5033974;28;49784;-72